Time;durP1;ratioP1;P1;durP2;ratioP2;P2;SDS_P1;SDS_P2;PMS_P1;PMS_P2;Temp;Humidity;BMP_temperature;BMP_pressure;BME280_temperature;BME280_humidity;BME280_pressure;Samples;Min_cycle;Max_cycle;Signal;HPM_P1;HPM_P2
2023/09/18 00:00:22;;;;;;;19.48;16.85;;;;;;;19.46;100.00;100558.50;5087593;28;20040;-67
2023/09/18 00:02:48;;;;;;;22.25;17.20;;;;;;;19.45;100.00;100545.28;5080214;28;20024;-67
2023/09/18 00:05:15;;;;;;;18.48;16.42;;;;;;;19.42;100.00;100540.38;5084466;28;20016;-67
2023/09/18 00:07:44;;;;;;;19.52;16.45;;;;;;;19.40;100.00;100537.91;5083047;28;20028;-67
2023/09/18 00:10:13;;;;;;;20.92;17.50;;;;;;;19.41;100.00;100527.97;5086912;28;20059;-67
2023/09/18 00:12:40;;;;;;;18.77;16.77;;;;;;;19.38;100.00;100513.09;5084054;28;20777;-67
2023/09/18 00:15:08;;;;;;;22.27;17.67;;;;;;;19.38;100.00;100523.88;5081839;28;20040;-67
2023/09/18 00:17:34;;;;;;;20.47;16.40;;;;;;;19.38;100.00;100533.81;5087716;28;20529;-67
2023/09/18 00:19:59;;;;;;;23.00;16.60;;;;;;;19.34;100.00;100519.97;5077344;28;20055;-67
2023/09/18 00:22:24;;;;;;;21.35;15.13;;;;;;;19.38;100.00;100512.28;5083418;28;20024;-66
2023/09/18 00:24:50;;;;;;;19.48;15.70;;;;;;;19.39;100.00;100513.91;5085026;28;20092;-67
2023/09/18 00:27:15;;;;;;;17.90;14.88;;;;;;;19.39;100.00;100512.03;5086895;28;20481;-67
2023/09/18 00:29:41;;;;;;;18.77;15.00;;;;;;;19.38;100.00;100496.13;5089672;28;20028;-67
2023/09/18 00:32:06;;;;;;;19.55;14.93;;;;;;;19.40;100.00;100484.06;5083812;28;20024;-66
2023/09/18 00:34:32;;;;;;;18.67;14.57;;;;;;;19.41;100.00;100487.56;5086453;28;20026;-67
2023/09/18 00:36:58;;;;;;;20.48;15.07;;;;;;;19.39;100.00;100479.72;5081292;28;20099;-67
2023/09/18 00:39:24;;;;;;;18.27;14.25;;;;;;;19.41;100.00;100474.91;5085162;28;20093;-67
2023/09/18 00:41:53;;;;;;;19.98;14.68;;;;;;;19.42;100.00;100465.78;5079914;28;20524;-67
2023/09/18 00:44:19;;;;;;;20.27;13.98;;;;;;;19.44;100.00;100469.06;5081309;28;20453;-67
2023/09/18 00:46:44;;;;;;;17.10;13.50;;;;;;;19.44;100.00;100469.06;5083571;28;20028;-66
2023/09/18 00:49:10;;;;;;;19.40;14.23;;;;;;;19.44;100.00;100458.28;5082410;28;20067;-67
2023/09/18 00:51:35;;;;;;;19.08;14.35;;;;;;;19.44;100.00;100446.69;5081409;28;20043;-66
2023/09/18 00:54:01;;;;;;;23.23;14.63;;;;;;;19.46;100.00;100445.41;5080990;28;20113;-66
2023/09/18 00:56:26;;;;;;;21.48;14.80;;;;;;;19.46;100.00;100440.00;5080571;28;20393;-67
2023/09/18 00:58:52;;;;;;;22.17;14.38;;;;;;;19.48;100.00;100443.28;5094363;28;20048;-67
2023/09/18 01:01:22;;;;;;;16.80;14.45;;;;;;;19.47;100.00;100440.81;5086980;28;20036;-67
2023/09/18 01:03:49;;;;;;;20.52;15.32;;;;;;;19.46;100.00;100431.94;5081147;28;20020;-67
2023/09/18 01:06:15;;;;;;;18.80;14.82;;;;;;;19.49;100.00;100425.25;5085172;28;20026;-67
2023/09/18 01:08:40;;;;;;;18.45;15.32;;;;;;;19.50;100.00;100426.88;5082188;28;20029;-67
2023/09/18 01:11:40;;;;;;;19.35;15.70;;;;;;;19.53;100.00;100418.34;5083694;28;20107;-66
2023/09/18 01:14:36;;;;;;;20.38;15.73;;;;;;;19.53;100.00;100394.09;5086154;28;20024;-67
2023/09/18 01:17:04;;;;;;;19.50;15.55;;;;;;;19.49;100.00;100391.03;5091791;28;20024;-66
2023/09/18 01:19:46;;;;;;;19.85;15.82;;;;;;;19.51;100.00;100396.19;5084741;28;20024;-66
2023/09/18 01:22:16;;;;;;;19.08;15.82;;;;;;;19.49;100.00;100390.22;5074638;28;20533;-66
2023/09/18 01:24:42;;;;;;;19.90;15.43;;;;;;;19.49;100.00;100388.34;5085636;28;20115;-67
2023/09/18 01:27:16;;;;;;;17.42;15.10;;;;;;;19.48;100.00;100378.63;5078813;28;20123;-66
2023/09/18 01:29:42;;;;;;;19.73;16.05;;;;;;;19.45;100.00;100373.72;5084492;28;20095;-67
2023/09/18 01:32:07;;;;;;;21.05;15.55;;;;;;;19.45;100.00;100381.81;5087903;28;20104;-66
2023/09/18 01:34:36;;;;;;;17.38;15.23;;;;;;;19.46;100.00;100380.75;5082561;28;20075;-67
2023/09/18 01:37:03;;;;;;;;;;;;;;;19.53;100.00;100387.88;5094963;28;20046;-67
2023/09/18 01:39:31;;;;;;;20.25;15.23;;;;;;;19.46;100.00;100385.31;5087661;28;19908;-67
2023/09/18 01:42:02;;;;;;;21.70;15.48;;;;;;;19.46;100.00;100390.72;5080471;28;20067;-67
2023/09/18 01:44:28;;;;;;;19.73;15.40;;;;;;;19.45;100.00;100395.28;5086784;28;20019;-67
2023/09/18 01:46:56;;;;;;;21.10;15.10;;;;;;;19.40;100.00;100391.69;5087663;28;20026;-67
2023/09/18 01:49:36;;;;;;;25.05;15.25;;;;;;;19.44;100.00;100409.00;5086343;28;20377;-67
2023/09/18 01:52:02;;;;;;;20.52;15.43;;;;;;;19.41;100.00;100404.09;5084391;28;20027;-66
2023/09/18 01:54:28;;;;;;;17.33;14.70;;;;;;;19.42;100.00;100403.03;5084052;28;20399;-67
2023/09/18 01:56:53;;;;;;;19.02;14.57;;;;;;;19.37;100.00;100394.81;5083559;28;20465;-66
2023/09/18 01:59:20;;;;;;;19.25;14.57;;;;;;;19.38;100.00;100389.22;5080465;28;20514;-67
2023/09/18 02:01:45;;;;;;;17.55;14.73;;;;;;;19.39;100.00;100403.50;5080639;28;20056;-67
2023/09/18 02:04:10;;;;;;;21.75;14.23;;;;;;;19.38;100.00;100391.09;5078206;28;21091;-67
2023/09/18 02:06:36;;;;;;;22.77;13.93;;;;;;;19.39;100.00;100388.16;5079674;28;20023;-66
2023/09/18 02:09:03;;;;;;;20.15;12.98;;;;;;;19.38;100.00;100377.63;5082781;28;20023;-66
2023/09/18 02:11:28;;;;;;;21.52;12.80;;;;;;;19.40;100.00;100381.72;5087619;28;20016;-66
2023/09/18 02:13:54;;;;;;;19.35;12.63;;;;;;;19.42;100.00;100385.00;5084203;28;20069;-67
2023/09/18 02:16:22;;;;;;;16.63;11.85;;;;;;;19.41;100.00;100369.91;5084883;28;20066;-66
2023/09/18 02:18:47;;;;;;;19.27;12.20;;;;;;;19.43;100.00;100378.53;5085225;28;20032;-66
2023/09/18 02:21:20;;;;;;;14.70;10.93;;;;;;;19.44;100.00;100366.72;5080451;28;20081;-67
2023/09/18 02:23:45;;;;;;;19.75;11.38;;;;;;;19.45;100.00;100372.91;5081173;28;20039;-67
2023/09/18 02:26:10;;;;;;;12.50;10.68;;;;;;;19.48;100.00;100364.34;5082598;28;20020;-67
2023/09/18 02:28:36;;;;;;;18.25;11.15;;;;;;;19.47;100.00;100366.22;5082611;28;20028;-67
2023/09/18 02:31:01;;;;;;;15.25;10.40;;;;;;;19.48;100.00;100353.59;5087920;28;20061;-66
2023/09/18 02:33:26;;;;;;;12.55;9.70;;;;;;;19.50;100.00;100340.69;5082640;28;20071;-66
2023/09/18 02:35:52;;;;;;;14.73;10.05;;;;;;;19.53;100.00;100342.09;5088076;28;20032;-66
2023/09/18 02:38:17;;;;;;;13.23;10.00;;;;;;;19.54;100.00;100338.34;5083821;28;20020;-66
2023/09/18 02:40:42;;;;;;;12.43;9.77;;;;;;;19.53;100.00;100328.63;5093018;28;20024;-67
2023/09/18 02:43:08;;;;;;;15.40;9.73;;;;;;;19.54;100.00;100314.13;5087138;28;20019;-67
2023/09/18 02:45:33;;;;;;;13.82;9.38;;;;;;;19.54;100.00;100319.50;5082758;28;20035;-67
2023/09/18 02:47:58;;;;;;;13.07;9.20;;;;;;;19.55;100.00;100307.66;5089577;28;20653;-67
2023/09/18 02:50:23;;;;;;;15.00;8.68;;;;;;;19.56;100.00;100301.22;5085357;28;20028;-67
2023/09/18 02:52:49;;;;;;;17.52;9.57;;;;;;;19.55;100.00;100295.03;5082379;28;20019;-67
2023/09/18 02:55:14;;;;;;;16.27;9.20;;;;;;;19.53;100.00;100297.13;5079323;28;20046;-67
2023/09/18 02:57:39;;;;;;;15.55;9.25;;;;;;;19.48;100.00;100292.47;5081274;28;20027;-67
2023/09/18 03:00:05;;;;;;;12.82;8.98;;;;;;;19.44;100.00;100302.09;5088792;28;20107;-67
2023/09/18 03:02:31;;;;;;;14.73;8.77;;;;;;;19.37;100.00;100303.25;5085546;28;20380;-67
2023/09/18 03:04:56;;;;;;;15.55;9.52;;;;;;;19.29;100.00;100287.50;5094551;28;20024;-67
2023/09/18 03:07:22;;;;;;;16.25;9.85;;;;;;;19.24;100.00;100288.22;5083643;28;20023;-67
2023/09/18 03:09:47;;;;;;;16.80;9.55;;;;;;;19.21;100.00;100286.03;5084815;28;20619;-67
2023/09/18 03:12:12;;;;;;;14.73;9.52;;;;;;;19.22;100.00;100290.34;5079066;28;21505;-67
2023/09/18 03:14:38;;;;;;;17.92;9.65;;;;;;;19.22;100.00;100274.19;5084006;28;20059;-67
2023/09/18 03:17:03;;;;;;;11.05;8.48;;;;;;;19.21;100.00;100269.88;5081276;28;20044;-66
2023/09/18 03:19:29;;;;;;;12.27;8.68;;;;;;;19.23;100.00;100264.25;5080314;28;20039;-67
2023/09/18 03:21:54;;;;;;;12.20;9.18;;;;;;;19.23;100.00;100267.75;5078628;28;20029;-66
2023/09/18 03:24:19;;;;;;;16.13;9.15;;;;;;;19.24;100.00;100269.38;5087382;28;20069;-67
2023/09/18 03:26:45;;;;;;;14.02;9.40;;;;;;;19.24;100.00;100264.00;5078705;28;20024;-67
2023/09/18 03:29:10;;;;;;;17.92;9.13;;;;;;;19.25;100.00;100257.56;5089761;28;20069;-67
2023/09/18 03:31:35;;;;;;;17.25;8.95;;;;;;;19.27;100.00;100260.81;5088390;28;20435;-66
2023/09/18 03:34:01;;;;;;;14.75;9.07;;;;;;;19.28;100.00;100273.22;5089879;28;20021;-67
2023/09/18 03:36:26;;;;;;;9.35;8.32;;;;;;;19.25;100.00;100254.88;5085346;28;20069;-67
2023/09/18 03:38:51;;;;;;;16.42;8.60;;;;;;;19.27;100.00;100258.13;5082972;28;20601;-67
2023/09/18 03:41:16;;;;;;;16.25;8.95;;;;;;;19.27;100.00;100263.53;5081079;28;20032;-67
2023/09/18 03:43:42;;;;;;;13.55;8.23;;;;;;;19.26;100.00;100255.69;5082470;28;20042;-66
2023/09/18 03:46:07;;;;;;;16.63;8.10;;;;;;;19.27;100.00;100257.31;5090011;28;20074;-66
2023/09/18 03:48:37;;;;;;;12.25;8.00;;;;;;;19.28;100.00;100265.16;5088665;28;20070;-67
2023/09/18 03:51:06;;;;;;;19.50;8.25;;;;;;;19.30;100.00;100283.75;5093989;28;20027;-67
2023/09/18 03:53:35;;;;;;;14.35;8.50;;;;;;;19.30;100.00;100289.97;5080513;28;20023;-67
2023/09/18 03:56:00;;;;;;;15.27;8.23;;;;;;;19.30;100.00;100291.84;5085843;28;20020;-67
2023/09/18 03:58:26;;;;;;;16.98;7.93;;;;;;;19.27;100.00;100276.97;5088744;28;20054;-67
2023/09/18 04:00:52;;;;;;;17.33;8.45;;;;;;;19.25;100.00;100280.97;5076854;28;20505;-67
2023/09/18 04:03:17;;;;;;;14.55;8.27;;;;;;;19.26;100.00;100274.53;5080966;28;20050;-67
2023/09/18 04:05:42;;;;;;;17.75;8.15;;;;;;;19.27;100.00;100279.69;5081693;28;20081;-67
2023/09/18 04:08:08;;;;;;;18.15;8.10;;;;;;;19.26;100.00;100264.59;5082343;28;20437;-68
2023/09/18 04:10:33;;;;;;;17.08;8.18;;;;;;;19.25;100.00;100254.06;5088233;28;20059;-69
2023/09/18 04:12:58;;;;;;;14.57;8.05;;;;;;;19.21;100.00;100271.75;5077731;28;20016;-68
2023/09/18 04:15:25;;;;;;;14.95;8.65;;;;;;;19.15;100.00;100287.00;5094062;28;20024;-70
2023/09/18 04:17:50;;;;;;;19.23;8.45;;;;;;;19.07;100.00;100290.06;5097609;28;20108;-69
2023/09/18 04:20:16;;;;;;;13.95;8.73;;;;;;;19.05;100.00;100294.84;5088627;28;20496;-69
2023/09/18 04:22:49;;;;;;;15.98;8.68;;;;;;;19.02;100.00;100301.53;5087392;28;20051;-69
2023/09/18 04:25:15;;;;;;;16.85;8.65;;;;;;;19.01;100.00;100296.41;5086515;28;20044;-69
2023/09/18 04:27:40;;;;;;;17.85;9.38;;;;;;;19.00;100.00;100287.50;5087456;28;20419;-69
2023/09/18 04:30:09;;;;;;;18.45;9.05;;;;;;;19.00;100.00;100267.84;5085023;28;20051;-70
2023/09/18 04:32:35;;;;;;;17.63;9.20;;;;;;;19.01;100.00;100272.16;5088207;28;20111;-69
2023/09/18 04:35:00;;;;;;;15.85;9.40;;;;;;;19.00;100.00;100271.34;5087539;28;20074;-70
2023/09/18 04:37:26;;;;;;;18.30;9.00;;;;;;;18.98;100.00;100267.28;5079968;28;20028;-70
2023/09/18 04:39:51;;;;;;;19.92;9.05;;;;;;;18.95;100.00;100263.19;5084527;28;20024;-69
2023/09/18 04:42:18;;;;;;;15.88;9.20;;;;;;;18.94;100.00;100252.66;5091534;28;20039;-70
2023/09/18 04:44:43;;;;;;;17.27;8.82;;;;;;;18.92;100.00;100247.53;5088740;28;20516;-69
2023/09/18 04:47:08;;;;;;;18.83;9.38;;;;;;;18.91;100.00;100239.69;5086847;28;20028;-70
2023/09/18 04:49:34;;;;;;;14.45;9.98;;;;;;;18.86;100.00;100211.66;5081682;28;20098;-69
2023/09/18 04:52:00;;;;;;;15.48;9.40;;;;;;;18.87;100.00;100204.38;5083656;28;20016;-69
2023/09/18 04:54:25;;;;;;;12.18;9.57;;;;;;;18.86;100.00;100192.81;5078900;28;20026;-70
2023/09/18 04:56:50;;;;;;;15.10;8.93;;;;;;;18.86;100.00;100195.50;5079857;28;20111;-70
2023/09/18 04:59:15;;;;;;;15.70;9.63;;;;;;;18.83;100.00;100182.53;5086523;28;20035;-70
2023/09/18 05:01:41;;;;;;;16.42;9.15;;;;;;;18.82;100.00;100180.09;5081487;28;20012;-69
2023/09/18 05:04:06;;;;;;;16.67;8.95;;;;;;;18.80;100.00;100192.97;5085538;28;20012;-69
2023/09/18 05:06:32;;;;;;;23.92;9.60;;;;;;;18.77;100.00;100185.34;5088755;28;20028;-69
2023/09/18 05:08:57;;;;;;;17.50;9.57;;;;;;;18.76;100.00;100189.91;5081680;28;20037;-70
2023/09/18 05:11:23;;;;;;;17.77;9.13;;;;;;;18.75;100.00;100190.16;5090394;28;20016;-69
2023/09/18 05:13:49;;;;;;;15.93;9.32;;;;;;;18.72;100.00;100183.38;5087751;28;20036;-70
2023/09/18 05:16:14;;;;;;;16.42;9.40;;;;;;;18.72;100.00;100185.25;5090632;28;20112;-69
2023/09/18 05:18:40;;;;;;;14.85;9.32;;;;;;;18.72;100.00;100182.56;5089669;28;20054;-69
2023/09/18 05:21:06;;;;;;;21.45;10.00;;;;;;;18.72;100.00;100185.25;5086592;28;20500;-69
2023/09/18 05:23:31;;;;;;;13.63;9.02;;;;;;;18.72;100.00;100193.31;5081081;28;20032;-69
2023/09/18 05:25:57;;;;;;;17.23;8.95;;;;;;;18.60;100.00;100193.34;5089644;28;20036;-69
2023/09/18 05:28:22;;;;;;;16.08;9.50;;;;;;;18.66;100.00;100213.09;5088662;28;20584;-69
2023/09/18 05:30:47;;;;;;;13.73;9.77;;;;;;;18.64;100.00;100212.53;5085058;28;20024;-69
2023/09/18 05:33:13;;;;;;;19.17;9.23;;;;;;;18.59;100.00;100213.22;5086871;28;20553;-69
2023/09/18 05:35:44;;;;;;;13.30;9.55;;;;;;;18.60;100.00;100220.22;5088591;28;20031;-69
2023/09/18 05:38:10;;;;;;;14.85;8.88;;;;;;;18.60;100.00;100216.72;5080840;28;20135;-69
2023/09/18 05:40:36;;;;;;;16.55;8.70;;;;;;;18.61;100.00;100210.28;5088656;28;20061;-69
2023/09/18 05:43:01;;;;;;;13.27;8.05;;;;;;;18.62;100.00;100210.09;5079294;28;20100;-69
2023/09/18 05:45:27;;;;;;;11.88;7.65;;;;;;;18.64;100.00;100216.03;5079117;28;20032;-69
2023/09/18 05:47:53;;;;;;;11.52;7.30;;;;;;;18.66;100.00;100210.41;5088165;28;20030;-69
2023/09/18 05:50:18;;;;;;;10.20;6.50;;;;;;;18.66;100.00;100205.03;5087911;28;20027;-69
2023/09/18 05:52:45;;;;;;;12.27;6.20;;;;;;;18.70;100.00;100216.94;5084888;28;20028;-69
2023/09/18 05:55:10;;;;;;;8.60;6.13;;;;;;;18.70;100.00;100219.63;5081838;28;20149;-69
2023/09/18 05:57:36;;;;;;;8.43;5.70;;;;;;;18.71;100.00;100232.84;5083592;28;20111;-69
2023/09/18 06:00:02;;;;;;;8.07;5.47;;;;;;;18.72;100.00;100226.41;5083176;28;20062;-69
2023/09/18 06:02:28;;;;;;;10.77;5.40;;;;;;;18.75;100.00;100241.25;5081611;28;20082;-69
2023/09/18 06:05:00;;;;;;;7.93;5.40;;;;;;;18.78;100.00;100248.84;5087012;28;20549;-68
2023/09/18 06:07:26;;;;;;;7.38;5.10;;;;;;;18.75;100.00;100234.00;5083387;28;20032;-68
2023/09/18 06:09:52;;;;;;;7.75;4.97;;;;;;;18.75;100.00;100243.94;5082270;28;20028;-68
2023/09/18 06:12:17;;;;;;;7.70;5.15;;;;;;;18.72;100.00;100245.25;5082255;28;20053;-68
2023/09/18 06:14:42;;;;;;;5.68;4.70;;;;;;;18.69;100.00;100245.72;5091880;28;20020;-68
2023/09/18 06:17:09;;;;;;;7.88;4.60;;;;;;;18.70;100.00;100251.91;5090426;28;20484;-68
2023/09/18 06:19:35;;;;;;;7.15;4.63;;;;;;;18.66;100.00;100246.19;5083993;28;20035;-68
2023/09/18 06:22:00;;;;;;;7.85;4.53;;;;;;;18.64;100.00;100248.31;5089699;28;20385;-68
2023/09/18 06:24:25;;;;;;;6.45;4.00;;;;;;;18.66;100.00;100242.69;5092560;28;20048;-69
2023/09/18 06:26:51;;;;;;;5.70;3.88;;;;;;;18.65;100.00;100249.94;5079224;28;20081;-68
2023/09/18 06:29:16;;;;;;;6.43;3.63;;;;;;;18.64;100.00;100251.00;5085875;28;20177;-68
2023/09/18 06:31:41;;;;;;;7.57;3.38;;;;;;;18.61;100.00;100254.16;5091034;28;20028;-68
2023/09/18 06:34:07;;;;;;;8.07;3.47;;;;;;;18.61;100.00;100256.84;5084088;28;20389;-68
2023/09/18 06:36:33;;;;;;;5.75;3.17;;;;;;;18.60;100.00;100263.28;5087982;28;20046;-67
2023/09/18 06:38:58;;;;;;;5.93;3.10;;;;;;;18.63;100.00;100254.75;5085689;28;20020;-68
2023/09/18 06:41:23;;;;;;;4.55;3.00;;;;;;;18.61;100.00;100259.53;5082948;28;20020;-68
2023/09/18 06:43:48;;;;;;;7.60;3.50;;;;;;;18.60;100.00;100262.44;5086766;28;20099;-67
2023/09/18 06:46:14;;;;;;;6.68;3.03;;;;;;;18.63;100.00;100272.75;5083198;28;20027;-68
2023/09/18 06:48:39;;;;;;;6.95;3.75;;;;;;;18.64;100.00;100269.84;5091749;28;20377;-68
2023/09/18 06:51:06;;;;;;;7.07;3.22;;;;;;;18.63;100.00;100262.81;5091345;28;20100;-68
2023/09/18 06:53:31;;;;;;;4.90;2.90;;;;;;;18.64;100.00;100275.22;5085709;28;20455;-68
2023/09/18 06:55:56;;;;;;;6.78;3.30;;;;;;;18.63;100.00;100275.44;5077747;28;20036;-68
2023/09/18 06:58:22;;;;;;;3.92;2.78;;;;;;;18.67;100.00;100280.13;5078634;28;20023;-67
2023/09/18 07:00:50;;;;;;;4.43;2.72;;;;;;;18.68;100.00;100284.44;5083612;28;20035;-67
2023/09/18 07:03:16;;;;;;;7.22;3.25;;;;;;;18.69;100.00;100299.53;5082299;28;20115;-68
2023/09/18 07:05:43;;;;;;;6.85;2.80;;;;;;;18.70;100.00;100311.91;5082432;28;20077;-67
2023/09/18 07:08:11;;;;;;;5.10;2.85;;;;;;;18.72;100.00;100303.59;5077336;28;20012;-67
2023/09/18 07:10:37;;;;;;;4.30;3.10;;;;;;;18.72;100.00;100303.59;5086847;28;20539;-67
2023/09/18 07:13:03;;;;;;;6.57;2.80;;;;;;;18.71;100.00;100299.28;5080543;28;20020;-67
2023/09/18 07:15:28;;;;;;;4.47;2.88;;;;;;;18.70;100.00;100295.78;5080265;28;20021;-67
2023/09/18 07:17:53;;;;;;;10.20;3.00;;;;;;;18.70;100.00;100294.97;5084215;28;20020;-68
2023/09/18 07:20:18;;;;;;;4.18;2.88;;;;;;;18.70;100.00;100294.97;5086675;28;20126;-67
2023/09/18 07:22:47;;;;;;;4.75;2.75;;;;;;;18.68;100.00;100303.25;5090338;28;20063;-67
2023/09/18 07:25:13;;;;;;;6.03;2.60;;;;;;;18.69;100.00;100298.69;5082534;28;20028;-67
2023/09/18 07:27:43;;;;;;;5.13;2.53;;;;;;;18.70;100.00;100297.66;5082769;28;20213;-67
2023/09/18 07:30:12;;;;;;;5.88;2.90;;;;;;;18.70;100.00;100295.78;5079084;28;20031;-67
2023/09/18 07:32:39;;;;;;;4.65;2.85;;;;;;;18.72;100.00;100298.22;5090047;28;20049;-67
2023/09/18 07:35:07;;;;;;;4.72;2.50;;;;;;;18.72;100.00;100303.59;5086646;28;20107;-67
2023/09/18 07:37:32;;;;;;;4.85;2.92;;;;;;;18.71;100.00;100316.25;5087729;28;20035;-68
2023/09/18 07:39:58;;;;;;;5.43;2.50;;;;;;;18.72;100.00;100299.03;5087545;28;20023;-67
2023/09/18 07:42:27;;;;;;;7.15;2.80;;;;;;;18.72;100.00;100300.91;5086179;28;20017;-67
2023/09/18 07:44:52;;;;;;;;;;;;;;;18.76;100.00;100320.91;5087744;28;20023;-66
2023/09/18 07:47:17;;;;;;;6.00;2.70;;;;;;;18.75;100.00;100319.28;5079904;28;19912;-66
2023/09/18 07:49:42;;;;;;;5.15;2.65;;;;;;;18.76;100.00;100307.44;5083897;28;20020;-67
2023/09/18 07:52:08;;;;;;;5.45;2.88;;;;;;;18.75;100.00;100313.88;5080822;28;20078;-66
2023/09/18 07:54:34;;;;;;;4.25;2.40;;;;;;;18.75;100.00;100313.88;5091546;28;20157;-66
2023/09/18 07:57:00;;;;;;;6.60;2.80;;;;;;;18.77;100.00;100325.22;5082037;28;20018;-66
2023/09/18 07:59:25;;;;;;;5.53;2.50;;;;;;;18.78;100.00;100311.53;5087780;28;20049;-66
2023/09/18 08:01:51;;;;;;;4.88;2.58;;;;;;;18.80;100.00;100311.34;5090779;28;20385;-66
2023/09/18 08:04:16;;;;;;;8.18;2.50;;;;;;;18.79;100.00;100310.50;5088016;28;20047;-67
2023/09/18 08:06:42;;;;;;;5.20;2.47;;;;;;;18.80;100.00;100301.38;5087461;28;20417;-67
2023/09/18 08:09:09;;;;;;;4.15;2.42;;;;;;;18.78;100.00;100308.84;5082986;28;20019;-67
2023/09/18 08:11:36;;;;;;;7.28;2.67;;;;;;;18.79;100.00;100310.50;5087747;28;20016;-66
2023/09/18 08:14:01;;;;;;;6.05;2.60;;;;;;;18.78;100.00;100310.72;5089045;28;20023;-67
2023/09/18 08:16:27;;;;;;;3.88;2.35;;;;;;;18.76;100.00;100324.41;5091359;28;20016;-67
2023/09/18 08:18:52;;;;;;;4.90;2.67;;;;;;;18.74;100.00;100321.16;5090362;28;20021;-66
2023/09/18 08:21:18;;;;;;;5.50;2.50;;;;;;;18.72;100.00;100320.56;5089029;28;20393;-66
2023/09/18 08:23:43;;;;;;;5.63;2.47;;;;;;;18.72;100.00;100317.06;5088759;28;20028;-66
2023/09/18 08:26:08;;;;;;;4.00;2.83;;;;;;;18.70;100.00;100322.66;5085939;28;20381;-66
2023/09/18 08:28:35;;;;;;;8.27;2.63;;;;;;;18.74;100.00;100333.78;5091821;28;20024;-66
2023/09/18 08:31:01;;;;;;;5.47;2.70;;;;;;;18.77;100.00;100330.59;5083545;28;20030;-67
2023/09/18 08:33:26;;;;;;;5.40;2.45;;;;;;;18.78;99.91;100341.13;5089401;28;20029;-67
2023/09/18 08:35:51;;;;;;;3.80;2.78;;;;;;;18.81;100.00;100343.38;5088205;28;20231;-66
2023/09/18 08:38:17;;;;;;;6.20;2.80;;;;;;;18.86;99.81;100340.78;5090344;28;20027;-67
2023/09/18 08:40:42;;;;;;;4.65;2.70;;;;;;;18.88;99.67;100341.38;5089470;28;20062;-67
2023/09/18 08:43:10;;;;;;;4.10;2.50;;;;;;;18.94;99.34;100349.53;5092917;28;20085;-67
2023/09/18 08:45:52;;;;;;;8.43;2.90;;;;;;;18.97;98.61;100354.44;5087458;28;20020;-66
2023/09/18 08:48:18;;;;;;;7.32;3.00;;;;;;;19.00;98.45;100364.72;5072048;28;20557;-66
2023/09/18 08:50:45;;;;;;;4.43;2.58;;;;;;;18.99;98.02;100361.22;5096075;28;20062;-66
2023/09/18 08:53:10;;;;;;;4.82;2.72;;;;;;;19.02;97.49;100381.47;5097405;28;20061;-66
2023/09/18 08:55:35;;;;;;;6.00;2.55;;;;;;;19.07;96.91;100352.78;5093379;28;20028;-69
2023/09/18 08:58:01;;;;;;;4.70;2.60;;;;;;;19.10;97.17;100359.56;5080668;28;20459;-69
2023/09/18 09:00:26;;;;;;;5.32;2.30;;;;;;;19.13;96.72;100348.34;5088507;27;20027;-69
2023/09/18 09:02:54;;;;;;;4.20;2.60;;;;;;;19.18;96.72;100343.88;5083289;28;20450;-66
2023/09/18 09:05:20;;;;;;;4.40;2.58;;;;;;;19.25;96.45;100343.72;5092522;28;20084;-66
2023/09/18 09:07:45;;;;;;;6.28;2.42;;;;;;;19.31;95.82;100353.53;5084624;28;20051;-66
2023/09/18 09:10:11;;;;;;;5.45;2.53;;;;;;;19.36;95.56;100355.50;5085925;28;20804;-66
2023/09/18 09:12:55;;;;;;;4.40;2.88;;;;;;;19.52;96.04;100362.00;5087596;28;20476;-66
2023/09/18 09:15:22;;;;;;;3.22;2.30;;;;;;;19.64;94.69;100352.00;5093237;28;20028;-66
2023/09/18 09:17:49;;;;;;;5.03;2.42;;;;;;;19.76;93.97;100352.78;5083428;28;20032;-66
2023/09/18 09:20:15;;;;;;;4.07;2.58;;;;;;;19.95;93.54;100356.88;5084104;28;20616;-66
2023/09/18 09:22:41;;;;;;;4.90;2.33;;;;;;;20.08;92.95;100361.94;5084237;28;20024;-66
2023/09/18 09:25:26;;;;;;;5.57;2.55;;;;;;;20.12;91.03;100375.75;5083280;28;20484;-66
2023/09/18 09:27:51;;;;;;;7.07;2.50;;;;;;;20.14;89.74;100391.69;5085156;28;20399;-66
2023/09/18 09:30:22;;;;;;;3.63;2.40;;;;;;;20.15;89.13;100385.22;5095994;28;20028;-66
2023/09/18 09:32:50;;;;;;;4.57;2.50;;;;;;;20.14;89.63;100383.59;5085156;28;20024;-66
2023/09/18 09:35:27;;;;;;;6.00;2.60;;;;;;;20.12;89.70;100386.53;5078524;28;20024;-66
2023/09/18 09:37:55;;;;;;;4.40;2.92;;;;;;;20.14;89.63;100391.69;5080190;28;20477;-66
2023/09/18 09:40:21;;;;;;;4.78;2.90;;;;;;;20.17;90.04;100388.50;5079670;28;20489;-66
2023/09/18 09:42:47;;;;;;;5.30;2.78;;;;;;;20.16;89.89;100384.97;5092261;28;20038;-66
2023/09/18 09:45:17;;;;;;;7.18;3.03;;;;;;;20.25;90.52;100382.72;5085054;28;20388;-66
2023/09/18 09:47:44;;;;;;;10.10;3.00;;;;;;;20.36;90.71;100384.50;5086882;28;20051;-66
2023/09/18 09:50:11;;;;;;;7.30;3.00;;;;;;;20.39;90.78;100392.91;5086232;28;20032;-66
2023/09/18 09:52:46;;;;;;;6.03;2.83;;;;;;;20.40;89.93;100385.66;5086852;28;20016;-66
2023/09/18 09:55:33;;;;;;;7.25;3.08;;;;;;;20.41;89.57;100392.69;5078093;28;20420;-66
2023/09/18 09:58:00;;;;;;;4.32;2.92;;;;;;;20.37;87.92;100391.53;5077412;28;20046;-65
2023/09/18 10:00:36;;;;;;;6.38;3.30;;;;;;;20.37;87.83;100396.91;5084597;28;20493;-66
2023/09/18 10:03:04;;;;;;;5.78;2.92;;;;;;;20.39;87.67;100401.00;5077119;28;20035;-66
2023/09/18 10:05:35;;;;;;;6.13;3.10;;;;;;;20.39;86.74;100400.19;5087983;28;20481;-66
2023/09/18 10:08:08;;;;;;;4.55;2.70;;;;;;;20.44;86.47;100400.28;5084837;28;20293;-66
2023/09/18 10:10:45;;;;;;;7.97;2.97;;;;;;;20.53;86.09;100404.22;5087533;28;20053;-66
2023/09/18 10:13:24;;;;;;;6.20;2.90;;;;;;;20.70;86.05;100404.19;5078773;28;20020;-65
2023/09/18 10:15:51;;;;;;;5.75;3.03;;;;;;;20.78;84.82;100406.47;5083881;28;20388;-65
2023/09/18 10:18:40;;;;;;;7.93;3.00;;;;;;;20.83;83.89;100419.25;5080022;28;20028;-66
2023/09/18 10:21:23;;;;;;;5.60;2.75;;;;;;;20.78;82.78;100424.53;5086582;28;20043;-65
2023/09/18 10:24:12;;;;;;;6.65;3.10;;;;;;;20.85;83.05;100422.50;5081753;28;20042;-65
2023/09/18 10:26:46;;;;;;;8.20;2.70;;;;;;;20.93;82.74;100411.28;5083999;28;20043;-66
2023/09/18 10:29:14;;;;;;;5.82;2.83;;;;;;;21.02;82.37;100405.19;5078100;28;20024;-66
2023/09/18 10:31:42;;;;;;;7.18;3.03;;;;;;;21.19;83.22;100415.13;5076733;28;20032;-66
2023/09/18 10:34:08;;;;;;;;;;;;;;;21.23;82.11;100421.66;5085106;28;20197;-65
2023/09/18 10:36:35;;;;;;;4.60;2.78;;;;;;;21.17;81.65;100415.38;5087919;28;20372;-65
2023/09/18 10:39:02;;;;;;;5.75;2.95;;;;;;;21.13;82.58;100432.34;5091221;28;20032;-65
2023/09/18 10:41:28;;;;;;;5.30;2.90;;;;;;;20.97;81.67;100421.31;5082099;28;20481;-65
2023/09/18 10:43:57;;;;;;;8.15;3.05;;;;;;;20.78;81.71;100425.34;5083489;28;20028;-65
2023/09/18 10:46:23;;;;;;;6.70;3.03;;;;;;;20.64;82.24;100415.97;5085901;28;20057;-65
2023/09/18 10:48:49;;;;;;;9.52;3.20;;;;;;;20.49;82.79;100416.56;5083454;28;20110;-65
2023/09/18 10:51:22;;;;;;;6.43;3.38;;;;;;;20.36;83.42;100420.38;5080565;28;20016;-66
2023/09/18 10:53:48;;;;;;;10.13;3.75;;;;;;;20.26;83.97;100414.00;5080984;28;20035;-66
2023/09/18 10:56:17;;;;;;;6.32;3.47;;;;;;;20.27;84.57;100416.47;5088001;28;20024;-66
2023/09/18 10:58:43;;;;;;;7.03;3.30;;;;;;;20.28;84.32;100422.69;5084380;28;20036;-66
2023/09/18 11:01:12;;;;;;;6.30;3.28;;;;;;;20.23;83.91;100412.59;5087063;28;20049;-66
2023/09/18 11:03:38;;;;;;;5.68;3.53;;;;;;;20.20;83.59;100417.66;5088409;28;20023;-66
2023/09/18 11:06:10;;;;;;;13.00;3.40;;;;;;;20.15;83.28;100418.41;5083275;28;20024;-65
2023/09/18 11:08:53;;;;;;;6.65;3.30;;;;;;;20.14;83.59;100413.25;5089578;28;20032;-66
2023/09/18 11:11:20;;;;;;;8.63;3.63;;;;;;;20.10;83.08;100429.91;5079352;28;20108;-65
2023/09/18 11:13:49;;;;;;;7.78;3.10;;;;;;;20.08;82.90;100418.56;5085387;28;20032;-66